Terminal Aerodrome Forecast
Issued by NWS

Home | Current Version | Previous Version | Text Only | Print | Product List | Glossary On
Versions: 1 2 3 4 5 6 7 8 9 10 11 12 13 14 15 16 17 18 19 20 21 22 23 24 25 26 27 28 29 30
000
FTUS41 KALY 081202 AAA
TAFPSF
TAF AMD
KPSF 081202Z 0812/0912 24005KT 6SM BR OVC100
      TEMPO 0812/0814 2SM BR SCT001 BKN020
     FM081400 23008KT P6SM VCSH SCT020 OVC035
     FM081800 27013G23KT P6SM VCSH OVC035
     FM090000 28012G22KT P6SM OVC040
     FM090500 29011G20KT P6SM OVC050=

USA.gov is the U.S. government's official web portal to all federal, state and local government web resources and services.